sensor_id;sensor_type;location;lat;lon;timestamp;P1;P4;P2;P0;N10;N4;N25;N1;N05;TS
73664;SPS30;61964;52.052;4.474;2023-09-19T00:01:46;3.63;3.36;2.86;2.12;17.01;16.98;16.86;16.16;13.03;0.66
73664;SPS30;61964;52.052;4.474;2023-09-19T00:04:12;3.22;2.97;2.51;1.83;14.70;14.67;14.55;13.91;11.16;0.68
73664;SPS30;61964;52.052;4.474;2023-09-19T00:06:41;3.72;3.42;2.87;2.07;16.65;16.61;16.47;15.71;12.55;0.69
73664;SPS30;61964;52.052;4.474;2023-09-19T00:09:08;3.55;3.25;2.71;1.92;15.41;15.37;15.24;14.48;11.50;0.70
73664;SPS30;61964;52.052;4.474;2023-09-19T00:11:37;3.62;3.31;2.73;1.90;15.27;15.24;15.09;14.29;11.26;0.71
73664;SPS30;61964;52.052;4.474;2023-09-19T00:14:06;3.91;3.56;2.92;2.00;16.11;16.07;15.90;15.02;11.77;0.71
73664;SPS30;61964;52.052;4.474;2023-09-19T00:16:34;3.65;3.31;2.71;1.84;14.80;14.76;14.61;13.78;10.75;0.72
73664;SPS30;61964;52.052;4.474;2023-09-19T00:19:00;3.78;3.43;2.80;1.90;15.26;15.22;15.06;14.18;11.06;0.73
73664;SPS30;61964;52.052;4.474;2023-09-19T00:21:26;3.29;2.99;2.45;1.68;13.51;13.47;13.34;12.60;9.86;0.73
73664;SPS30;61964;52.052;4.474;2023-09-19T00:23:52;3.74;3.41;2.80;1.92;15.43;15.39;15.24;14.39;11.28;0.73
73664;SPS30;61964;52.052;4.474;2023-09-19T00:26:20;3.49;3.18;2.63;1.82;14.67;14.63;14.49;13.72;10.81;0.72
73664;SPS30;61964;52.052;4.474;2023-09-19T00:28:46;3.07;2.81;2.35;1.68;13.50;13.47;13.35;12.71;10.12;0.70
73664;SPS30;61964;52.052;4.474;2023-09-19T00:31:12;3.67;3.35;2.79;1.96;15.78;15.75;15.60;14.82;11.73;0.71
73664;SPS30;61964;52.052;4.474;2023-09-19T00:33:37;3.44;3.16;2.65;1.90;15.23;15.19;15.06;14.35;11.43;0.70
73664;SPS30;61964;52.052;4.474;2023-09-19T00:36:03;3.03;2.81;2.40;1.78;14.27;14.24;14.14;13.56;10.95;0.69
73664;SPS30;61964;52.052;4.474;2023-09-19T00:38:30;3.51;3.24;2.75;2.01;16.13;16.10;15.97;15.28;12.27;0.69
73664;SPS30;61964;52.052;4.474;2023-09-19T00:40:57;3.71;3.39;2.81;1.97;15.81;15.77;15.63;14.82;11.72;0.71
73664;SPS30;61964;52.052;4.474;2023-09-19T00:43:24;3.61;3.30;2.72;1.89;15.22;15.19;15.04;14.25;11.22;0.72
73664;SPS30;61964;52.052;4.474;2023-09-19T00:45:52;3.91;3.57;2.94;2.04;16.42;16.38;16.22;15.36;12.09;0.72
73664;SPS30;61964;52.052;4.474;2023-09-19T00:48:23;3.88;3.54;2.93;2.04;16.42;16.38;16.22;15.38;12.13;0.71
73664;SPS30;61964;52.052;4.474;2023-09-19T00:50:52;4.23;3.83;3.10;2.07;16.64;16.60;16.41;15.41;11.93;0.75
73664;SPS30;61964;52.052;4.474;2023-09-19T00:53:20;4.21;3.79;3.04;1.98;15.91;15.86;15.67;14.64;11.22;0.76
73664;SPS30;61964;52.052;4.474;2023-09-19T00:55:49;4.39;3.97;3.21;2.13;17.18;17.13;16.94;15.89;12.29;0.73
73664;SPS30;61964;52.052;4.474;2023-09-19T00:58:17;4.73;4.28;3.46;2.29;18.46;18.41;18.20;17.07;13.19;0.73
73664;SPS30;61964;52.052;4.474;2023-09-19T01:00:44;4.46;4.03;3.24;2.13;17.18;17.13;16.93;15.86;12.21;0.74
73664;SPS30;61964;52.052;4.474;2023-09-19T01:03:10;4.55;4.12;3.34;2.22;17.89;17.84;17.64;16.56;12.82;0.72
73664;SPS30;61964;52.052;4.474;2023-09-19T01:05:38;4.17;3.82;3.17;2.23;17.92;17.88;17.71;16.82;13.31;0.69
73664;SPS30;61964;52.052;4.474;2023-09-19T01:08:05;4.47;4.07;3.34;2.28;18.36;18.31;18.12;17.11;13.39;0.70
73664;SPS30;61964;52.052;4.474;2023-09-19T01:10:32;4.88;4.43;3.62;2.45;19.74;19.69;19.48;18.36;14.32;0.72
73664;SPS30;61964;52.052;4.474;2023-09-19T01:32:04;4.82;4.34;3.46;2.23;17.99;17.93;17.71;16.51;12.60;0.76
73664;SPS30;61964;52.052;4.474;2023-09-19T01:37:18;5.33;4.78;3.77;2.37;19.08;19.02;18.76;17.39;13.11;0.76
73664;SPS30;61964;52.052;4.474;2023-09-19T01:39:48;5.86;5.21;4.02;2.39;19.26;19.19;18.89;17.28;12.65;0.80
73664;SPS30;61964;52.052;4.474;2023-09-19T01:42:31;5.37;4.75;3.62;2.09;16.86;16.79;16.51;14.98;10.79;0.83
73664;SPS30;61964;52.052;4.474;2023-09-19T01:52:54;5.73;5.05;3.83;2.18;17.60;17.53;17.22;15.57;11.12;0.82
73664;SPS30;61964;52.052;4.474;2023-09-19T01:55:29;6.12;5.36;3.97;2.12;17.17;17.08;16.74;14.88;10.21;0.87
73664;SPS30;61964;52.052;4.474;2023-09-19T01:58:06;6.25;5.49;4.11;2.26;18.27;18.19;17.84;15.99;11.18;0.84
73664;SPS30;61964;52.052;4.474;2023-09-19T02:00:40;6.19;5.45;4.08;2.25;18.20;18.12;17.78;15.95;11.17;0.84
73664;SPS30;61964;52.052;4.474;2023-09-19T02:03:10;5.66;4.97;3.72;2.03;16.45;16.38;16.06;14.38;10.02;0.83
73664;SPS30;61964;52.052;4.474;2023-09-19T02:05:37;6.02;5.28;3.94;2.13;17.23;17.15;16.81;15.00;10.38;0.85
73664;SPS30;61964;52.052;4.474;2023-09-19T02:08:04;5.28;4.63;3.46;1.89;15.28;15.21;14.92;13.34;9.29;0.85
73664;SPS30;61964;52.052;4.474;2023-09-19T02:10:30;5.96;5.25;3.96;2.22;17.95;17.87;17.55;15.81;11.20;0.84
73664;SPS30;61964;52.052;4.474;2023-09-19T02:12:56;5.24;4.60;3.42;1.83;14.86;14.79;14.49;12.91;8.90;0.85
73664;SPS30;61964;52.052;4.474;2023-09-19T02:15:22;4.59;4.02;2.99;1.60;12.96;12.90;12.64;11.25;7.73;0.86
73664;SPS30;61964;52.052;4.474;2023-09-19T02:18:03;4.90;4.33;3.28;1.86;15.01;14.94;14.68;13.26;9.46;0.81
73664;SPS30;61964;52.052;4.474;2023-09-19T02:20:29;5.02;4.44;3.39;1.96;15.85;15.79;15.52;14.10;10.18;0.80
73664;SPS30;61964;52.052;4.474;2023-09-19T02:22:55;5.36;4.74;3.61;2.08;16.80;16.73;16.45;14.93;10.74;0.81
73664;SPS30;61964;52.052;4.474;2023-09-19T02:25:20;5.06;4.47;3.41;1.96;15.84;15.78;15.51;14.07;10.12;0.81
73664;SPS30;61964;52.052;4.474;2023-09-19T02:27:46;5.16;4.55;3.44;1.93;15.63;15.56;15.29;13.79;9.78;0.84
73664;SPS30;61964;52.052;4.474;2023-09-19T02:30:12;4.39;3.86;2.92;1.63;13.21;13.15;12.91;11.63;8.24;0.84
73664;SPS30;61964;52.052;4.474;2023-09-19T02:32:41;4.99;4.41;3.35;1.92;15.49;15.43;15.16;13.74;9.85;0.82
73664;SPS30;61964;52.052;4.474;2023-09-19T02:35:07;4.71;4.20;3.27;1.98;15.99;15.94;15.70;14.44;10.70;0.78
73664;SPS30;61964;52.052;4.474;2023-09-19T02:37:36;4.23;3.77;2.93;1.77;14.29;14.24;14.03;12.89;9.53;0.79
73664;SPS30;61964;52.052;4.474;2023-09-19T02:40:01;4.59;4.10;3.20;1.95;15.76;15.71;15.48;14.26;10.60;0.79
73664;SPS30;61964;52.052;4.474;2023-09-19T02:42:27;4.69;4.18;3.25;1.97;15.94;15.88;15.65;14.39;10.66;0.78
73664;SPS30;61964;52.052;4.474;2023-09-19T02:44:53;4.76;4.21;3.20;1.82;14.75;14.69;14.43;13.07;9.36;0.81
73664;SPS30;61964;52.052;4.474;2023-09-19T02:47:19;4.74;4.20;3.21;1.87;15.10;15.04;14.79;13.46;9.75;0.79
73664;SPS30;61964;52.052;4.474;2023-09-19T02:49:45;4.23;3.75;2.88;1.69;13.66;13.61;13.39;12.21;8.89;0.79
73664;SPS30;61964;52.052;4.474;2023-09-19T02:52:11;4.19;3.73;2.89;1.74;14.03;13.98;13.76;12.63;9.31;0.77
73664;SPS30;61964;52.052;4.474;2023-09-19T02:54:39;4.22;3.77;2.96;1.83;14.79;14.74;14.53;13.43;10.05;0.75
73664;SPS30;61964;52.052;4.474;2023-09-19T02:57:20;4.68;4.19;3.29;2.04;16.49;16.43;16.21;14.98;11.23;0.76
73664;SPS30;61964;52.052;4.474;2023-09-19T02:59:46;4.30;3.82;2.94;1.75;14.10;14.04;13.83;12.64;9.25;0.78
73664;SPS30;61964;52.052;4.474;2023-09-19T03:02:12;4.53;4.01;3.07;1.78;14.39;14.33;14.09;12.82;9.27;0.81
73664;SPS30;61964;52.052;4.474;2023-09-19T03:04:38;4.64;4.11;3.15;1.85;14.91;14.85;14.61;13.32;9.68;0.82
73664;SPS30;61964;52.052;4.474;2023-09-19T03:07:04;3.87;3.44;2.67;1.62;13.05;13.00;12.81;11.76;8.69;0.81
73664;SPS30;61964;52.052;4.474;2023-09-19T03:09:31;4.45;3.98;3.11;1.92;15.47;15.42;15.20;14.03;10.47;0.77
73664;SPS30;61964;52.052;4.474;2023-09-19T03:11:56;3.72;3.33;2.62;1.64;13.20;13.15;12.97;12.01;9.03;0.76
73664;SPS30;61964;52.052;4.474;2023-09-19T03:14:23;3.90;3.50;2.76;1.74;14.05;14.00;13.82;12.82;9.68;0.75
73664;SPS30;61964;52.052;4.474;2023-09-19T03:16:50;3.70;3.31;2.60;1.62;13.07;13.02;12.85;11.88;8.92;0.76
73664;SPS30;61964;52.052;4.474;2023-09-19T03:19:17;4.31;3.83;2.96;1.77;14.28;14.23;14.01;12.83;9.43;0.79
73664;SPS30;61964;52.052;4.474;2023-09-19T03:21:43;4.54;4.02;3.08;1.79;14.47;14.41;14.18;12.90;9.34;0.81
73664;SPS30;61964;52.052;4.474;2023-09-19T03:24:08;4.46;3.96;3.06;1.82;14.67;14.61;14.39;13.16;9.64;0.79
73664;SPS30;61964;52.052;4.474;2023-09-19T03:26:35;4.40;3.92;3.05;1.85;14.92;14.87;14.65;13.47;9.98;0.77
73664;SPS30;61964;52.052;4.474;2023-09-19T03:29:03;4.16;3.72;2.92;1.81;14.60;14.55;14.35;13.26;9.94;0.77
73664;SPS30;61964;52.052;4.474;2023-09-19T03:31:45;4.44;3.94;3.04;1.81;14.58;14.52;14.30;13.08;9.58;0.80
73664;SPS30;61964;52.052;4.474;2023-09-19T03:34:10;4.36;3.87;2.98;1.76;14.18;14.12;13.90;12.69;9.26;0.80
73664;SPS30;61964;52.052;4.474;2023-09-19T03:36:36;4.45;3.94;3.03;1.78;14.36;14.30;14.07;12.83;9.34;0.80
73664;SPS30;61964;52.052;4.474;2023-09-19T03:39:02;4.17;3.68;2.79;1.59;12.85;12.79;12.57;11.37;8.13;0.82
73664;SPS30;61964;52.052;4.474;2023-09-19T03:41:31;4.59;4.05;3.08;1.75;14.18;14.12;13.88;12.56;8.99;0.81
73664;SPS30;61964;52.052;4.474;2023-09-19T03:43:58;4.03;3.57;2.74;1.60;12.95;12.90;12.69;11.56;8.40;0.79
73664;SPS30;61964;52.052;4.474;2023-09-19T03:46:24;4.26;3.77;2.89;1.68;13.57;13.51;13.29;12.09;8.76;0.79
73664;SPS30;61964;52.052;4.474;2023-09-19T03:48:50;4.35;3.85;2.93;1.68;13.59;13.54;13.31;12.07;8.67;0.80
73664;SPS30;61964;52.052;4.474;2023-09-19T03:51:16;4.02;3.57;2.76;1.65;13.28;13.23;13.03;11.93;8.76;0.79
73664;SPS30;61964;52.052;4.474;2023-09-19T03:53:42;4.26;3.81;2.98;1.84;14.83;14.78;14.57;13.45;10.04;0.77
73664;SPS30;61964;52.052;4.474;2023-09-19T03:56:07;4.07;3.64;2.87;1.80;14.48;14.44;14.24;13.19;9.93;0.76
73664;SPS30;61964;52.052;4.474;2023-09-19T03:58:33;4.39;3.91;3.03;1.82;14.69;14.64;14.42;13.22;9.74;0.79
73664;SPS30;61964;52.052;4.474;2023-09-19T04:01:04;4.19;3.71;2.83;1.64;13.22;13.17;12.95;11.76;8.48;0.81
73664;SPS30;61964;52.052;4.474;2023-09-19T04:03:34;4.48;3.99;3.10;1.87;15.07;15.01;14.79;13.57;10.02;0.78
73664;SPS30;61964;52.052;4.474;2023-09-19T04:06:14;4.24;3.77;2.91;1.74;14.04;13.99;13.77;12.61;9.26;0.78
73664;SPS30;61964;52.052;4.474;2023-09-19T04:08:43;4.16;3.70;2.85;1.69;13.64;13.59;13.38;12.23;8.95;0.78
73664;SPS30;61964;52.052;4.474;2023-09-19T04:11:09;4.52;3.98;2.98;1.64;13.28;13.22;12.97;11.64;8.15;0.84
73664;SPS30;61964;52.052;4.474;2023-09-19T04:13:36;4.46;3.91;2.92;1.59;12.88;12.82;12.58;11.24;7.82;0.84
73664;SPS30;61964;52.052;4.474;2023-09-19T04:16:02;4.69;4.12;3.09;1.70;13.76;13.70;13.44;12.05;8.44;0.82
73664;SPS30;61964;52.052;4.474;2023-09-19T04:18:32;4.29;3.81;2.94;1.74;14.07;14.01;13.80;12.61;9.23;0.77
73664;SPS30;61964;52.052;4.474;2023-09-19T04:21:02;3.61;3.23;2.54;1.59;12.79;12.75;12.58;11.64;8.74;0.75
73664;SPS30;61964;52.052;4.474;2023-09-19T04:23:29;3.28;2.94;2.33;1.47;11.83;11.79;11.64;10.80;8.16;0.75
73664;SPS30;61964;52.052;4.474;2023-09-19T04:25:56;3.43;3.07;2.42;1.52;12.23;12.19;12.03;11.14;8.39;0.76
73664;SPS30;61964;52.052;4.474;2023-09-19T04:28:22;3.93;3.51;2.76;1.71;13.77;13.72;13.53;12.50;9.36;0.78
73664;SPS30;61964;52.052;4.474;2023-09-19T04:30:49;4.31;3.84;3.00;1.84;14.86;14.81;14.60;13.46;10.02;0.78
73664;SPS30;61964;52.052;4.474;2023-09-19T04:33:15;4.12;3.70;2.92;1.85;14.89;14.84;14.64;13.59;10.27;0.77
73664;SPS30;61964;52.052;4.474;2023-09-19T04:35:41;3.36;3.01;2.38;1.50;12.09;12.05;11.89;11.03;8.33;0.76
73664;SPS30;61964;52.052;4.474;2023-09-19T04:38:10;4.02;3.59;2.80;1.72;13.87;13.82;13.62;12.55;9.35;0.78
73664;SPS30;61964;52.052;4.474;2023-09-19T04:40:36;4.01;3.55;2.73;1.60;12.96;12.91;12.70;11.59;8.44;0.79
73664;SPS30;61964;52.052;4.474;2023-09-19T04:43:04;3.90;3.46;2.67;1.58;12.73;12.68;12.48;11.40;8.33;0.78
73664;SPS30;61964;52.052;4.474;2023-09-19T04:45:31;3.83;3.41;2.66;1.63;13.13;13.08;12.89;11.87;8.83;0.78
73664;SPS30;61964;52.052;4.474;2023-09-19T04:47:57;3.64;3.25;2.55;1.58;12.74;12.70;12.52;11.57;8.66;0.78
73664;SPS30;61964;52.052;4.474;2023-09-19T04:50:23;3.86;3.43;2.67;1.61;13.03;12.98;12.79;11.75;8.69;0.79
73664;SPS30;61964;52.052;4.474;2023-09-19T04:52:53;3.61;3.22;2.52;1.54;12.44;12.39;12.22;11.26;8.38;0.78
73664;SPS30;61964;52.052;4.474;2023-09-19T04:55:19;3.66;3.26;2.53;1.53;12.39;12.34;12.16;11.17;8.27;0.79
73664;SPS30;61964;52.052;4.474;2023-09-19T04:57:51;4.21;3.74;2.90;1.74;14.07;14.01;13.80;12.66;9.33;0.79
73664;SPS30;61964;52.052;4.474;2023-09-19T05:00:19;4.22;3.75;2.90;1.73;13.97;13.92;13.71;12.55;9.22;0.78
73664;SPS30;61964;52.052;4.474;2023-09-19T05:02:49;4.15;3.69;2.85;1.71;13.79;13.74;13.53;12.40;9.12;0.78
73664;SPS30;61964;52.052;4.474;2023-09-19T05:05:16;4.35;3.84;2.92;1.66;13.44;13.38;13.15;11.90;8.51;0.80
73664;SPS30;61964;52.052;4.474;2023-09-19T05:07:44;4.62;4.09;3.13;1.83;14.79;14.73;14.49;13.20;9.58;0.80
73664;SPS30;61964;52.052;4.474;2023-09-19T05:10:11;4.14;3.68;2.84;1.69;13.61;13.56;13.35;12.21;8.94;0.80
73664;SPS30;61964;52.052;4.474;2023-09-19T05:12:38;4.65;4.13;3.20;1.92;15.46;15.40;15.17;13.90;10.23;0.80
73664;SPS30;61964;52.052;4.474;2023-09-19T05:15:04;4.74;4.21;3.26;1.95;15.76;15.70;15.46;14.17;10.42;0.79
73664;SPS30;61964;52.052;4.474;2023-09-19T05:17:35;4.66;4.14;3.20;1.90;15.38;15.32;15.08;13.81;10.13;0.78
73664;SPS30;61964;52.052;4.474;2023-09-19T05:20:01;4.82;4.26;3.25;1.87;15.12;15.06;14.80;13.43;9.67;0.81
73664;SPS30;61964;52.052;4.474;2023-09-19T05:22:31;4.90;4.34;3.32;1.92;15.53;15.47;15.21;13.83;9.99;0.80
73664;SPS30;61964;52.052;4.474;2023-09-19T05:25:00;4.57;4.08;3.19;1.96;15.84;15.78;15.56;14.35;10.70;0.77
73664;SPS30;61964;52.052;4.474;2023-09-19T05:27:28;4.07;3.64;2.87;1.79;14.43;14.38;14.19;13.13;9.87;0.77
73664;SPS30;61964;52.052;4.474;2023-09-19T05:29:56;4.93;4.41;3.45;2.13;17.17;17.11;16.87;15.57;11.63;0.78
73664;SPS30;61964;52.052;4.474;2023-09-19T05:32:22;5.01;4.47;3.48;2.12;17.10;17.04;16.79;15.45;11.47;0.79
73664;SPS30;61964;52.052;4.474;2023-09-19T05:34:48;4.51;4.02;3.13;1.91;15.43;15.37;15.15;13.95;10.36;0.78
73664;SPS30;61964;52.052;4.474;2023-09-19T05:37:13;4.53;4.06;3.22;2.05;16.51;16.46;16.25;15.10;11.45;0.75
73664;SPS30;61964;52.052;4.474;2023-09-19T05:39:41;4.43;4.01;3.24;2.15;17.29;17.24;17.04;15.99;12.35;0.73
73664;SPS30;61964;52.052;4.474;2023-09-19T05:42:07;4.46;4.02;3.23;2.12;17.05;16.99;16.79;15.71;12.07;0.74
73664;SPS30;61964;52.052;4.474;2023-09-19T05:44:33;4.10;3.73;3.04;2.07;16.63;16.58;16.41;15.47;12.07;0.71
73664;SPS30;61964;52.052;4.474;2023-09-19T05:46:59;4.24;3.85;3.15;2.14;17.21;17.16;16.99;16.02;12.51;0.72
73664;SPS30;61964;52.052;4.474;2023-09-19T05:49:25;4.90;4.41;3.53;2.28;18.38;18.32;18.10;16.89;12.91;0.74
73664;SPS30;61964;52.052;4.474;2023-09-19T05:51:51;5.38;4.82;3.80;2.38;19.17;19.10;18.85;17.45;13.13;0.77
73664;SPS30;61964;52.052;4.474;2023-09-19T05:54:22;5.26;4.69;3.67;2.26;18.25;18.18;17.93;16.54;12.34;0.77
73664;SPS30;61964;52.052;4.474;2023-09-19T05:56:47;5.26;4.69;3.67;2.25;18.19;18.12;17.86;16.47;12.28;0.78
73664;SPS30;61964;52.052;4.474;2023-09-19T05:59:14;5.31;4.77;3.79;2.42;19.51;19.45;19.20;17.86;13.57;0.74
73664;SPS30;61964;52.052;4.474;2023-09-19T06:01:42;5.02;4.52;3.61;2.33;18.79;18.73;18.50;17.26;13.18;0.74
73664;SPS30;61964;52.052;4.474;2023-09-19T06:04:08;5.39;4.83;3.82;2.41;19.44;19.37;19.12;17.74;13.40;0.77
73664;SPS30;61964;52.052;4.474;2023-09-19T06:06:33;5.58;4.99;3.93;2.46;19.82;19.76;19.49;18.05;13.57;0.77
73664;SPS30;61964;52.052;4.474;2023-09-19T06:09:04;5.18;4.63;3.63;2.25;18.17;18.11;17.86;16.51;12.37;0.77
73664;SPS30;61964;52.052;4.474;2023-09-19T06:11:31;4.73;4.28;3.47;2.31;18.60;18.55;18.34;17.22;13.34;0.72
73664;SPS30;61964;52.052;4.474;2023-09-19T06:13:59;5.60;5.05;4.03;2.61;21.04;20.98;20.72;19.34;14.79;0.75
73664;SPS30;61964;52.052;4.474;2023-09-19T06:16:29;5.57;4.99;3.95;2.50;20.11;20.05;19.78;18.36;13.87;0.77
73664;SPS30;61964;52.052;4.474;2023-09-19T06:18:55;5.86;5.22;4.06;2.46;19.87;19.80;19.51;17.93;13.28;0.78
73664;SPS30;61964;52.052;4.474;2023-09-19T06:21:22;5.69;5.07;3.94;2.39;19.27;19.20;18.92;17.38;12.87;0.78
73664;SPS30;61964;52.052;4.474;2023-09-19T06:23:48;6.48;5.76;4.44;2.64;21.29;21.21;20.88;19.10;13.99;0.79
73664;SPS30;61964;52.052;4.474;2023-09-19T06:26:14;6.38;5.67;4.37;2.59;20.94;20.85;20.53;18.77;13.74;0.79
73664;SPS30;61964;52.052;4.474;2023-09-19T06:28:40;6.61;5.88;4.54;2.71;21.88;21.80;21.47;19.66;14.43;0.80
73664;SPS30;61964;52.052;4.474;2023-09-19T06:31:09;6.19;5.51;4.27;2.57;20.76;20.69;20.38;18.70;13.80;0.80
73664;SPS30;61964;52.052;4.474;2023-09-19T06:33:35;6.16;5.47;4.22;2.51;20.25;20.18;19.86;18.17;13.31;0.80
73664;SPS30;61964;52.052;4.474;2023-09-19T06:36:05;6.40;5.68;4.37;2.59;20.92;20.84;20.51;18.75;13.71;0.79
73664;SPS30;61964;52.052;4.474;2023-09-19T06:38:31;6.51;5.78;4.46;2.66;21.46;21.38;21.05;19.26;14.13;0.79
73664;SPS30;61964;52.052;4.474;2023-09-19T06:40:59;6.62;5.87;4.51;2.66;21.47;21.38;21.04;19.20;14.00;0.80
73664;SPS30;61964;52.052;4.474;2023-09-19T06:43:33;5.84;5.19;3.99;2.35;19.01;18.93;18.63;17.01;12.41;0.81
73664;SPS30;61964;52.052;4.474;2023-09-19T06:46:00;6.01;5.33;4.10;2.41;19.47;19.39;19.08;17.41;12.69;0.82
73664;SPS30;61964;52.052;4.474;2023-09-19T06:48:27;7.01;6.20;4.72;2.72;21.96;21.87;21.50;19.50;14.03;0.84
73664;SPS30;61964;52.052;4.474;2023-09-19T06:50:58;6.44;5.72;4.43;2.65;21.37;21.29;20.96;19.20;14.12;0.81
73664;SPS30;61964;52.052;4.474;2023-09-19T06:53:30;5.64;5.02;3.89;2.34;18.85;18.78;18.50;16.97;12.51;0.80
73664;SPS30;61964;52.052;4.474;2023-09-19T06:56:00;6.25;5.60;4.40;2.75;22.18;22.10;21.80;20.18;15.16;0.77
73664;SPS30;61964;52.052;4.474;2023-09-19T06:58:27;6.01;5.39;4.26;2.69;21.69;21.62;21.33;19.79;14.95;0.75
73664;SPS30;61964;52.052;4.474;2023-09-19T07:00:53;5.94;5.33;4.21;2.66;21.41;21.34;21.06;19.54;14.76;0.75
73664;SPS30;61964;52.052;4.474;2023-09-19T07:03:19;6.20;5.55;4.36;2.72;21.95;21.87;21.57;19.96;14.99;0.76
73664;SPS30;61964;52.052;4.474;2023-09-19T07:05:47;5.51;4.94;3.89;2.45;19.72;19.65;19.39;17.97;13.54;0.75
73664;SPS30;61964;52.052;4.474;2023-09-19T07:08:14;6.06;5.41;4.22;2.58;20.81;20.74;20.44;18.82;14.00;0.76
73664;SPS30;61964;52.052;4.474;2023-09-19T07:10:40;5.48;4.92;3.90;2.48;19.98;19.91;19.65;18.26;13.84;0.75
73664;SPS30;61964;52.052;4.474;2023-09-19T07:13:13;5.76;5.18;4.14;2.68;21.59;21.52;21.26;19.83;15.15;0.75
73664;SPS30;61964;52.052;4.474;2023-09-19T07:15:42;5.47;4.94;3.97;2.61;21.00;20.94;20.70;19.37;14.90;0.73
73664;SPS30;61964;52.052;4.474;2023-09-19T07:18:15;6.14;5.54;4.46;2.94;23.64;23.57;23.29;21.81;16.80;0.73
73664;SPS30;61964;52.052;4.474;2023-09-19T07:20:42;5.32;4.81;3.87;2.54;20.45;20.39;20.16;18.87;14.52;0.74
73664;SPS30;61964;52.052;4.474;2023-09-19T07:23:15;6.05;5.41;4.26;2.65;21.41;21.33;21.04;19.47;14.62;0.77
73664;SPS30;61964;52.052;4.474;2023-09-19T07:25:44;6.55;5.87;4.64;2.92;23.56;23.48;23.17;21.49;16.22;0.76
73664;SPS30;61964;52.052;4.474;2023-09-19T07:28:10;6.09;5.47;4.36;2.80;22.59;22.52;22.24;20.72;15.79;0.75
73664;SPS30;61964;52.052;4.474;2023-09-19T07:30:36;6.28;5.66;4.52;2.94;23.64;23.57;23.29;21.74;16.63;0.74
73664;SPS30;61964;52.052;4.474;2023-09-19T07:33:03;6.61;5.94;4.70;2.98;24.04;23.97;23.66;21.97;16.64;0.76
73664;SPS30;61964;52.052;4.474;2023-09-19T07:35:30;6.90;6.13;4.72;2.80;22.60;22.51;22.16;20.25;14.82;0.80
73664;SPS30;61964;52.052;4.474;2023-09-19T07:37:56;6.17;5.51;4.31;2.66;21.47;21.40;21.10;19.47;14.55;0.77
73664;SPS30;61964;52.052;4.474;2023-09-19T07:40:23;6.54;5.80;4.47;2.65;21.43;21.35;21.01;19.21;14.06;0.81
73664;SPS30;61964;52.052;4.474;2023-09-19T07:42:54;7.02;6.23;4.79;2.82;22.76;22.67;22.31;20.36;14.84;0.81
73664;SPS30;61964;52.052;4.474;2023-09-19T07:45:21;6.88;6.12;4.73;2.83;22.87;22.78;22.43;20.55;15.11;0.80
73664;SPS30;61964;52.052;4.474;2023-09-19T07:47:48;6.68;5.96;4.65;2.85;22.96;22.88;22.55;20.77;15.46;0.77
73664;SPS30;61964;52.052;4.474;2023-09-19T07:50:16;6.80;6.06;4.72;2.86;23.10;23.02;22.68;20.85;15.45;0.77
73664;SPS30;61964;52.052;4.474;2023-09-19T07:52:44;6.43;5.75;4.52;2.81;22.68;22.60;22.29;20.61;15.46;0.75
73664;SPS30;61964;52.052;4.474;2023-09-19T07:55:10;6.69;5.99;4.72;2.95;23.82;23.74;23.42;21.69;16.32;0.76
73664;SPS30;61964;52.052;4.474;2023-09-19T07:57:45;6.63;5.92;4.62;2.84;22.89;22.80;22.48;20.72;15.44;0.77
73664;SPS30;61964;52.052;4.474;2023-09-19T08:00:12;6.21;5.58;4.43;2.82;22.75;22.68;22.39;20.81;15.80;0.75
73664;SPS30;61964;52.052;4.474;2023-09-19T08:02:40;5.77;5.21;4.21;2.78;22.40;22.33;22.08;20.70;15.97;0.72
73664;SPS30;61964;52.052;4.474;2023-09-19T08:05:10;6.61;5.91;4.62;2.84;22.89;22.81;22.49;20.73;15.46;0.76
73664;SPS30;61964;52.052;4.474;2023-09-19T08:07:38;6.62;5.86;4.48;2.61;21.07;20.98;20.64;18.78;13.59;0.78
73664;SPS30;61964;52.052;4.474;2023-09-19T08:10:06;8.05;7.08;5.33;2.96;23.95;23.84;23.40;21.03;14.82;0.80
73664;SPS30;61964;52.052;4.474;2023-09-19T08:12:34;6.26;5.54;4.22;2.43;19.63;19.55;19.22;17.44;12.55;0.78
73664;SPS30;61964;52.052;4.474;2023-09-19T08:15:02;5.98;5.35;4.21;2.62;21.11;21.03;20.75;19.19;14.39;0.75
73664;SPS30;61964;52.052;4.474;2023-09-19T08:17:28;6.45;5.75;4.47;2.71;21.83;21.75;21.43;19.69;14.57;0.77
73664;SPS30;61964;52.052;4.474;2023-09-19T08:19:54;6.47;5.76;4.47;2.70;21.81;21.73;21.40;19.66;14.53;0.78
73664;SPS30;61964;52.052;4.474;2023-09-19T08:22:20;6.55;5.86;4.62;2.90;23.39;23.31;23.00;21.31;16.05;0.77
73664;SPS30;61964;52.052;4.474;2023-09-19T08:24:47;6.61;5.90;4.61;2.83;22.85;22.77;22.45;20.70;15.43;0.79
73664;SPS30;61964;52.052;4.474;2023-09-19T08:27:13;5.99;5.36;4.22;2.64;21.25;21.18;20.89;19.34;14.54;0.78
73664;SPS30;61964;52.052;4.474;2023-09-19T08:29:38;6.26;5.60;4.40;2.74;22.06;21.99;21.69;20.05;15.04;0.79
73664;SPS30;61964;52.052;4.474;2023-09-19T08:32:04;6.97;6.15;4.65;2.63;21.23;21.14;20.77;18.75;13.34;0.85
73664;SPS30;61964;52.052;4.474;2023-09-19T08:34:30;7.77;6.84;5.14;2.86;23.12;23.01;22.59;20.31;14.31;0.85
73664;SPS30;61964;52.052;4.474;2023-09-19T08:36:59;7.17;6.36;4.87;2.85;23.02;22.93;22.56;20.55;14.93;0.82
73664;SPS30;61964;52.052;4.474;2023-09-19T08:39:25;6.64;5.90;4.56;2.71;21.90;21.81;21.47;19.65;14.41;0.80
73664;SPS30;61964;52.052;4.474;2023-09-19T08:42:03;6.96;6.15;4.68;2.68;21.64;21.55;21.18;19.19;13.77;0.83
73664;SPS30;61964;52.052;4.474;2023-09-19T08:44:29;6.81;6.00;4.54;2.57;20.74;20.65;20.29;18.32;13.03;0.84
73664;SPS30;61964;52.052;4.474;2023-09-19T08:47:18;6.85;6.06;4.61;2.65;21.44;21.35;20.99;19.04;13.69;0.83
73664;SPS30;61964;52.052;4.474;2023-09-19T08:52:41;7.67;6.76;5.10;2.86;23.16;23.06;22.64;20.41;14.46;0.83
73664;SPS30;61964;52.052;4.474;2023-09-19T08:55:11;7.69;6.77;5.10;2.84;22.97;22.87;22.45;20.20;14.26;0.83
73664;SPS30;61964;52.052;4.474;2023-09-19T08:57:38;6.66;5.88;4.47;2.55;20.62;20.54;20.18;18.28;13.09;0.81
73664;SPS30;61964;52.052;4.474;2023-09-19T09:00:08;6.83;6.00;4.50;2.48;20.06;19.96;19.59;17.57;12.31;0.84
73664;SPS30;61964;52.052;4.474;2023-09-19T09:02:37;7.61;6.67;4.98;2.70;21.83;21.73;21.30;19.02;13.19;0.87
73664;SPS30;61964;52.052;4.474;2023-09-19T09:05:10;7.22;6.30;4.64;2.41;19.56;19.46;19.04;16.80;11.32;0.88
73664;SPS30;61964;52.052;4.474;2023-09-19T09:07:40;7.23;6.39;4.86;2.79;22.55;22.45;22.07;20.01;14.37;0.80
73664;SPS30;61964;52.052;4.474;2023-09-19T09:10:06;6.80;6.05;4.68;2.81;22.71;22.62;22.28;20.43;15.05;0.79
73664;SPS30;61964;52.052;4.474;2023-09-19T09:12:33;8.01;7.04;5.27;2.90;23.47;23.36;22.92;20.54;14.38;0.84
73664;SPS30;61964;52.052;4.474;2023-09-19T09:15:02;8.00;7.01;5.22;2.81;22.78;22.67;22.23;19.82;13.69;0.86
73664;SPS30;61964;52.052;4.474;2023-09-19T09:17:29;7.70;6.74;5.00;2.67;21.62;21.51;21.08;18.74;12.86;0.84
73664;SPS30;61964;52.052;4.474;2023-09-19T09:19:55;7.55;6.61;4.90;2.60;21.09;20.98;20.55;18.25;12.49;0.84
73664;SPS30;61964;52.052;4.474;2023-09-19T09:22:22;7.19;6.33;4.77;2.67;21.59;21.50;21.11;19.01;13.45;0.82
73664;SPS30;61964;52.052;4.474;2023-09-19T09:27:38;7.50;6.62;5.01;2.84;22.93;22.83;22.43;20.26;14.43;0.81
73664;SPS30;61964;52.052;4.474;2023-09-19T09:30:06;7.25;6.41;4.89;2.81;22.74;22.65;22.27;20.21;14.55;0.80
73664;SPS30;61964;52.052;4.474;2023-09-19T09:32:32;6.30;5.61;4.35;2.62;21.15;21.07;20.76;19.05;14.06;0.77
73664;SPS30;61964;52.052;4.474;2023-09-19T09:35:01;6.33;5.65;4.40;2.69;21.71;21.63;21.32;19.63;14.60;0.76
73664;SPS30;61964;52.052;4.474;2023-09-19T09:37:29;6.86;6.10;4.70;2.78;22.49;22.40;22.05;20.16;14.75;0.78
73664;SPS30;61964;52.052;4.474;2023-09-19T09:39:57;6.63;5.88;4.50;2.63;21.23;21.15;20.80;18.94;13.74;0.80
73664;SPS30;61964;52.052;4.474;2023-09-19T09:42:45;6.96;6.16;4.72;2.74;22.17;22.08;21.72;19.76;14.31;0.81
73664;SPS30;61964;52.052;4.474;2023-09-19T09:45:21;6.68;5.94;4.59;2.74;22.09;22.01;21.67;19.84;14.57;0.79
73664;SPS30;61964;52.052;4.474;2023-09-19T09:48:08;6.05;5.39;4.20;2.56;20.68;20.60;20.30;18.68;13.87;0.76
73664;SPS30;61964;52.052;4.474;2023-09-19T09:50:47;5.87;5.25;4.13;2.58;20.80;20.73;20.45;18.92;14.22;0.76
73664;SPS30;61964;52.052;4.474;2023-09-19T09:56:10;5.95;5.31;4.15;2.55;20.59;20.52;20.23;18.65;13.90;0.77